TimeMDT,TemperatureF,Dew PointF,Humidity,Sea Level PressureIn,VisibilityMPH,Wind Direction,Wind SpeedMPH,Gust SpeedMPH,PrecipitationIn,Events,Conditions,WindDirDegrees,DateUTC
12:53 AM,62.1,48.0,60,29.75,10.0,SSE,12.7,-,N/A,,Scattered Clouds,160,2013-05-17 06:53:00
1:53 AM,59.0,50.0,72,29.73,10.0,SSE,12.7,-,N/A,,Clear,160,2013-05-17 07:53:00
2:53 AM,57.9,50.0,75,29.73,10.0,South,10.4,-,N/A,,Clear,170,2013-05-17 08:53:00
3:53 AM,60.1,52.0,75,29.73,10.0,South,18.4,-,N/A,,Partly Cloudy,180,2013-05-17 09:53:00
4:53 AM,57.0,53.1,87,29.73,10.0,South,18.4,-,N/A,,Clear,180,2013-05-17 10:53:00
6:53 AM,59.0,55.0,87,29.77,10.0,South,17.3,-,N/A,,Clear,190,2013-05-17 12:53:00
7:53 AM,63.0,55.0,75,29.77,10.0,South,16.1,-,N/A,,Clear,190,2013-05-17 13:53:00
8:53 AM,66.9,55.0,66,29.76,10.0,South,17.3,-,N/A,,Clear,180,2013-05-17 14:53:00
9:53 AM,72.0,55.0,55,29.75,10.0,South,12.7,-,N/A,,Clear,190,2013-05-17 15:53:00
10:53 AM,75.9,52.0,43,29.72,10.0,South,13.8,20.7,N/A,,Clear,190,2013-05-17 16:53:00
11:53 AM,79.0,48.9,35,29.72,10.0,South,16.1,24.2,N/A,,Clear,180,2013-05-17 17:53:00
12:53 PM,82.9,50.0,32,29.68,10.0,South,13.8,23.0,N/A,,Clear,180,2013-05-17 18:53:00
1:53 PM,84.9,41.0,21,29.67,10.0,SE,10.4,19.6,N/A,,Clear,140,2013-05-17 19:53:00
2:53 PM,86.0,37.9,18,29.65,10.0,SE,15.0,24.2,N/A,,Clear,140,2013-05-17 20:53:00
3:53 PM,82.9,39.9,22,29.63,10.0,SSE,19.6,24.2,N/A,,Clear,160,2013-05-17 21:53:00
4:53 PM,84.9,41.0,21,29.62,10.0,SSE,19.6,31.1,N/A,,Partly Cloudy,160,2013-05-17 22:53:00
5:53 PM,84.0,41.0,22,29.60,10.0,South,23.0,28.8,N/A,,Clear,170,2013-05-17 23:53:00
6:53 PM,81.0,41.0,24,29.60,10.0,SSE,12.7,-,N/A,,Clear,160,2013-05-18 00:53:00
7:53 PM,73.9,42.1,32,29.61,10.0,SE,11.5,-,N/A,,Clear,140,2013-05-18 01:53:00
8:53 PM,72.0,55.0,55,29.62,10.0,SE,19.6,-,N/A,,Clear,140,2013-05-18 02:53:00
9:53 PM,70.0,57.0,63,29.64,10.0,SE,20.7,31.1,N/A,,Clear,140,2013-05-18 03:53:00
10:53 PM,66.9,60.1,79,29.64,10.0,SSE,24.2,31.1,N/A,,Clear,150,2013-05-18 04:53:00
11:53 PM,66.0,61.0,84,29.62,10.0,SSE,19.6,27.6,N/A,,Clear,160,2013-05-18 05:53:00